sensor_id;sensor_type;location;lat;lon;timestamp;P1;durP1;ratioP1;P2;durP2;ratioP2
22916;SDS011;11624;53.250;7.456;2023-04-19T00:01:25;18.90;;;8.55;;
22916;SDS011;11624;53.250;7.456;2023-04-19T00:03:53;19.38;;;8.57;;
22916;SDS011;11624;53.250;7.456;2023-04-19T00:06:23;20.05;;;8.70;;
22916;SDS011;11624;53.250;7.456;2023-04-19T00:08:55;18.35;;;8.90;;
22916;SDS011;11624;53.250;7.456;2023-04-19T00:11:24;18.80;;;8.68;;
22916;SDS011;11624;53.250;7.456;2023-04-19T00:13:53;20.58;;;9.07;;
22916;SDS011;11624;53.250;7.456;2023-04-19T00:16:22;20.58;;;9.20;;
22916;SDS011;11624;53.250;7.456;2023-04-19T00:18:50;17.73;;;9.15;;
22916;SDS011;11624;53.250;7.456;2023-04-19T00:21:19;19.17;;;9.25;;
22916;SDS011;11624;53.250;7.456;2023-04-19T00:23:47;21.77;;;10.15;;
22916;SDS011;11624;53.250;7.456;2023-04-19T00:26:15;20.20;;;10.10;;
22916;SDS011;11624;53.250;7.456;2023-04-19T00:28:48;21.63;;;10.38;;
22916;SDS011;11624;53.250;7.456;2023-04-19T00:31:17;23.25;;;10.10;;
22916;SDS011;11624;53.250;7.456;2023-04-19T00:33:46;21.95;;;9.93;;
22916;SDS011;11624;53.250;7.456;2023-04-19T00:36:14;22.55;;;10.25;;
22916;SDS011;11624;53.250;7.456;2023-04-19T00:38:45;22.70;;;10.32;;
22916;SDS011;11624;53.250;7.456;2023-04-19T00:41:14;20.55;;;10.38;;
22916;SDS011;11624;53.250;7.456;2023-04-19T00:43:43;20.30;;;9.82;;
22916;SDS011;11624;53.250;7.456;2023-04-19T00:46:11;20.40;;;9.90;;
22916;SDS011;11624;53.250;7.456;2023-04-19T00:48:43;21.90;;;10.15;;
22916;SDS011;11624;53.250;7.456;2023-04-19T00:51:11;20.45;;;10.05;;
22916;SDS011;11624;53.250;7.456;2023-04-19T00:53:40;22.17;;;10.20;;
22916;SDS011;11624;53.250;7.456;2023-04-19T00:56:10;21.70;;;10.30;;
22916;SDS011;11624;53.250;7.456;2023-04-19T00:58:40;20.20;;;9.90;;
22916;SDS011;11624;53.250;7.456;2023-04-19T01:01:08;20.48;;;10.32;;
22916;SDS011;11624;53.250;7.456;2023-04-19T01:03:37;20.38;;;9.75;;
22916;SDS011;11624;53.250;7.456;2023-04-19T01:06:07;21.10;;;10.02;;
22916;SDS011;11624;53.250;7.456;2023-04-19T01:08:35;22.80;;;10.40;;
22916;SDS011;11624;53.250;7.456;2023-04-19T01:11:05;18.88;;;9.25;;
22916;SDS011;11624;53.250;7.456;2023-04-19T01:13:35;21.17;;;9.77;;
22916;SDS011;11624;53.250;7.456;2023-04-19T01:16:04;22.33;;;10.23;;
22916;SDS011;11624;53.250;7.456;2023-04-19T01:18:33;16.75;;;8.60;;
22916;SDS011;11624;53.250;7.456;2023-04-19T01:21:03;17.98;;;9.05;;
22916;SDS011;11624;53.250;7.456;2023-04-19T01:23:34;19.45;;;8.75;;
22916;SDS011;11624;53.250;7.456;2023-04-19T01:26:02;16.67;;;8.07;;
22916;SDS011;11624;53.250;7.456;2023-04-19T01:28:30;20.23;;;8.18;;
22916;SDS011;11624;53.250;7.456;2023-04-19T01:30:59;18.52;;;8.38;;
22916;SDS011;11624;53.250;7.456;2023-04-19T01:33:28;16.75;;;8.30;;
22916;SDS011;11624;53.250;7.456;2023-04-19T01:35:56;19.35;;;8.55;;
22916;SDS011;11624;53.250;7.456;2023-04-19T01:38:24;18.25;;;7.80;;
22916;SDS011;11624;53.250;7.456;2023-04-19T01:40:54;19.17;;;8.23;;
22916;SDS011;11624;53.250;7.456;2023-04-19T01:43:23;15.90;;;7.45;;
22916;SDS011;11624;53.250;7.456;2023-04-19T01:45:51;19.30;;;7.63;;
22916;SDS011;11624;53.250;7.456;2023-04-19T01:48:20;18.02;;;7.97;;
22916;SDS011;11624;53.250;7.456;2023-04-19T01:50:48;16.25;;;7.93;;
22916;SDS011;11624;53.250;7.456;2023-04-19T01:53:16;17.10;;;7.82;;
22916;SDS011;11624;53.250;7.456;2023-04-19T01:55:45;17.42;;;7.70;;
22916;SDS011;11624;53.250;7.456;2023-04-19T01:58:14;16.38;;;7.78;;
22916;SDS011;11624;53.250;7.456;2023-04-19T02:00:43;17.95;;;7.85;;
22916;SDS011;11624;53.250;7.456;2023-04-19T02:03:12;18.40;;;7.88;;
22916;SDS011;11624;53.250;7.456;2023-04-19T02:05:41;15.50;;;7.32;;
22916;SDS011;11624;53.250;7.456;2023-04-19T02:08:09;16.60;;;7.80;;
22916;SDS011;11624;53.250;7.456;2023-04-19T02:10:38;17.67;;;7.55;;
22916;SDS011;11624;53.250;7.456;2023-04-19T02:13:06;17.52;;;7.32;;
22916;SDS011;11624;53.250;7.456;2023-04-19T02:15:36;17.50;;;7.20;;
22916;SDS011;11624;53.250;7.456;2023-04-19T02:18:05;17.17;;;7.75;;
22916;SDS011;11624;53.250;7.456;2023-04-19T02:20:33;18.52;;;7.90;;
22916;SDS011;11624;53.250;7.456;2023-04-19T02:23:02;17.67;;;7.97;;
22916;SDS011;11624;53.250;7.456;2023-04-19T02:25:32;18.13;;;7.72;;
22916;SDS011;11624;53.250;7.456;2023-04-19T02:28:00;15.48;;;7.18;;
22916;SDS011;11624;53.250;7.456;2023-04-19T02:30:29;18.08;;;7.13;;
22916;SDS011;11624;53.250;7.456;2023-04-19T02:32:58;18.58;;;7.35;;
22916;SDS011;11624;53.250;7.456;2023-04-19T02:35:27;16.90;;;7.45;;
22916;SDS011;11624;53.250;7.456;2023-04-19T02:37:56;17.48;;;7.78;;
22916;SDS011;11624;53.250;7.456;2023-04-19T02:40:27;19.38;;;7.38;;
22916;SDS011;11624;53.250;7.456;2023-04-19T02:42:57;18.08;;;7.68;;
22916;SDS011;11624;53.250;7.456;2023-04-19T02:45:25;15.95;;;7.10;;
22916;SDS011;11624;53.250;7.456;2023-04-19T02:47:54;17.20;;;6.47;;
22916;SDS011;11624;53.250;7.456;2023-04-19T02:50:24;15.63;;;6.55;;
22916;SDS011;11624;53.250;7.456;2023-04-19T02:52:53;15.70;;;7.25;;
22916;SDS011;11624;53.250;7.456;2023-04-19T02:55:23;15.30;;;6.85;;
22916;SDS011;11624;53.250;7.456;2023-04-19T02:58:01;17.52;;;7.47;;
22916;SDS011;11624;53.250;7.456;2023-04-19T03:00:29;18.63;;;6.82;;
22916;SDS011;11624;53.250;7.456;2023-04-19T03:03:04;19.08;;;6.50;;
22916;SDS011;11624;53.250;7.456;2023-04-19T03:05:35;14.15;;;6.28;;
22916;SDS011;11624;53.250;7.456;2023-04-19T03:08:03;16.42;;;6.80;;
22916;SDS011;11624;53.250;7.456;2023-04-19T03:10:32;15.15;;;6.50;;
22916;SDS011;11624;53.250;7.456;2023-04-19T03:13:00;17.17;;;6.65;;
22916;SDS011;11624;53.250;7.456;2023-04-19T03:15:29;16.03;;;6.30;;
22916;SDS011;11624;53.250;7.456;2023-04-19T03:17:57;15.57;;;6.68;;
22916;SDS011;11624;53.250;7.456;2023-04-19T03:20:26;16.50;;;6.72;;
22916;SDS011;11624;53.250;7.456;2023-04-19T03:22:57;19.52;;;7.18;;
22916;SDS011;11624;53.250;7.456;2023-04-19T03:25:26;21.52;;;7.07;;
22916;SDS011;11624;53.250;7.456;2023-04-19T03:28:06;18.47;;;6.77;;
22916;SDS011;11624;53.250;7.456;2023-04-19T03:30:53;15.80;;;6.10;;
22916;SDS011;11624;53.250;7.456;2023-04-19T03:33:21;17.30;;;6.47;;
22916;SDS011;11624;53.250;7.456;2023-04-19T03:35:50;15.38;;;6.82;;
22916;SDS011;11624;53.250;7.456;2023-04-19T03:38:19;15.80;;;6.33;;
22916;SDS011;11624;53.250;7.456;2023-04-19T03:40:48;15.40;;;6.20;;
22916;SDS011;11624;53.250;7.456;2023-04-19T03:43:17;16.60;;;6.13;;
22916;SDS011;11624;53.250;7.456;2023-04-19T03:45:45;14.30;;;6.30;;
22916;SDS011;11624;53.250;7.456;2023-04-19T03:48:14;15.07;;;6.47;;
22916;SDS011;11624;53.250;7.456;2023-04-19T03:50:42;15.53;;;6.37;;
22916;SDS011;11624;53.250;7.456;2023-04-19T03:53:14;14.10;;;6.07;;
22916;SDS011;11624;53.250;7.456;2023-04-19T03:55:45;14.57;;;5.77;;
22916;SDS011;11624;53.250;7.456;2023-04-19T03:58:15;18.93;;;6.30;;
22916;SDS011;11624;53.250;7.456;2023-04-19T04:00:53;15.33;;;5.87;;
22916;SDS011;11624;53.250;7.456;2023-04-19T04:03:22;16.83;;;6.67;;
22916;SDS011;11624;53.250;7.456;2023-04-19T04:05:51;16.00;;;6.40;;
22916;SDS011;11624;53.250;7.456;2023-04-19T04:08:19;15.37;;;6.57;;
22916;SDS011;11624;53.250;7.456;2023-04-19T04:10:49;15.37;;;5.60;;
22916;SDS011;11624;53.250;7.456;2023-04-19T04:13:17;17.70;;;6.30;;
22916;SDS011;11624;53.250;7.456;2023-04-19T04:16:00;14.57;;;5.73;;
22916;SDS011;11624;53.250;7.456;2023-04-19T04:18:29;13.97;;;5.70;;
22916;SDS011;11624;53.250;7.456;2023-04-19T04:20:59;14.53;;;5.73;;
22916;SDS011;11624;53.250;7.456;2023-04-19T04:23:28;15.97;;;5.57;;
22916;SDS011;11624;53.250;7.456;2023-04-19T04:25:59;15.20;;;6.23;;
22916;SDS011;11624;53.250;7.456;2023-04-19T04:28:39;18.30;;;5.97;;
22916;SDS011;11624;53.250;7.456;2023-04-19T04:31:08;17.53;;;5.70;;
22916;SDS011;11624;53.250;7.456;2023-04-19T04:33:39;12.83;;;5.50;;
22916;SDS011;11624;53.250;7.456;2023-04-19T04:36:10;16.27;;;5.83;;
22916;SDS011;11624;53.250;7.456;2023-04-19T04:38:40;14.13;;;5.67;;
22916;SDS011;11624;53.250;7.456;2023-04-19T04:41:10;16.60;;;5.83;;
22916;SDS011;11624;53.250;7.456;2023-04-19T04:43:38;13.63;;;5.47;;
22916;SDS011;11624;53.250;7.456;2023-04-19T04:46:08;14.77;;;5.57;;
22916;SDS011;11624;53.250;7.456;2023-04-19T04:48:39;14.50;;;5.97;;
22916;SDS011;11624;53.250;7.456;2023-04-19T04:51:08;18.10;;;6.37;;
22916;SDS011;11624;53.250;7.456;2023-04-19T04:53:37;15.70;;;5.97;;
22916;SDS011;11624;53.250;7.456;2023-04-19T04:56:07;15.43;;;6.30;;
22916;SDS011;11624;53.250;7.456;2023-04-19T04:58:37;13.83;;;5.43;;
22916;SDS011;11624;53.250;7.456;2023-04-19T05:01:08;16.17;;;5.80;;
22916;SDS011;11624;53.250;7.456;2023-04-19T05:03:38;13.43;;;5.40;;
22916;SDS011;11624;53.250;7.456;2023-04-19T05:06:12;14.67;;;5.67;;
22916;SDS011;11624;53.250;7.456;2023-04-19T05:08:40;20.93;;;5.73;;
22916;SDS011;11624;53.250;7.456;2023-04-19T05:11:17;14.70;;;5.37;;
22916;SDS011;11624;53.250;7.456;2023-04-19T05:13:48;14.20;;;5.07;;
22916;SDS011;11624;53.250;7.456;2023-04-19T05:16:16;15.27;;;5.17;;
22916;SDS011;11624;53.250;7.456;2023-04-19T05:18:46;15.03;;;5.13;;
22916;SDS011;11624;53.250;7.456;2023-04-19T05:21:15;13.40;;;4.87;;
22916;SDS011;11624;53.250;7.456;2023-04-19T05:23:43;13.30;;;4.33;;
22916;SDS011;11624;53.250;7.456;2023-04-19T05:26:13;15.47;;;4.97;;
22916;SDS011;11624;53.250;7.456;2023-04-19T05:28:43;18.63;;;4.93;;
22916;SDS011;11624;53.250;7.456;2023-04-19T05:31:22;15.63;;;5.20;;
22916;SDS011;11624;53.250;7.456;2023-04-19T05:34:05;14.80;;;4.70;;
22916;SDS011;11624;53.250;7.456;2023-04-19T05:36:33;14.00;;;4.67;;
22916;SDS011;11624;53.250;7.456;2023-04-19T05:39:01;13.23;;;4.50;;
22916;SDS011;11624;53.250;7.456;2023-04-19T05:41:30;14.50;;;4.63;;
22916;SDS011;11624;53.250;7.456;2023-04-19T05:43:58;14.40;;;4.90;;
22916;SDS011;11624;53.250;7.456;2023-04-19T05:46:28;13.20;;;4.53;;
22916;SDS011;11624;53.250;7.456;2023-04-19T05:48:57;13.00;;;4.60;;
22916;SDS011;11624;53.250;7.456;2023-04-19T05:51:26;13.53;;;4.97;;
22916;SDS011;11624;53.250;7.456;2023-04-19T05:54:08;13.10;;;4.83;;
22916;SDS011;11624;53.250;7.456;2023-04-19T05:56:42;14.37;;;4.67;;
22916;SDS011;11624;53.250;7.456;2023-04-19T05:59:11;12.73;;;4.30;;
22916;SDS011;11624;53.250;7.456;2023-04-19T06:01:41;12.77;;;4.53;;
22916;SDS011;11624;53.250;7.456;2023-04-19T06:04:10;11.63;;;4.07;;
22916;SDS011;11624;53.250;7.456;2023-04-19T06:06:39;12.20;;;4.57;;
22916;SDS011;11624;53.250;7.456;2023-04-19T06:09:07;11.97;;;4.30;;
22916;SDS011;11624;53.250;7.456;2023-04-19T06:11:36;12.57;;;4.50;;
22916;SDS011;11624;53.250;7.456;2023-04-19T06:14:16;14.40;;;4.63;;
22916;SDS011;11624;53.250;7.456;2023-04-19T06:16:46;11.33;;;4.27;;
22916;SDS011;11624;53.250;7.456;2023-04-19T06:19:15;11.93;;;3.90;;
22916;SDS011;11624;53.250;7.456;2023-04-19T06:21:43;11.70;;;3.90;;
22916;SDS011;11624;53.250;7.456;2023-04-19T06:24:11;16.65;;;4.00;;
22916;SDS011;11624;53.250;7.456;2023-04-19T06:26:40;11.95;;;4.05;;
22916;SDS011;11624;53.250;7.456;2023-04-19T06:29:08;9.53;;;3.37;;
22916;SDS011;11624;53.250;7.456;2023-04-19T06:31:37;10.35;;;3.58;;
22916;SDS011;11624;53.250;7.456;2023-04-19T06:34:06;11.18;;;3.50;;
22916;SDS011;11624;53.250;7.456;2023-04-19T06:36:36;8.13;;;3.17;;
22916;SDS011;11624;53.250;7.456;2023-04-19T06:39:05;9.43;;;3.15;;
22916;SDS011;11624;53.250;7.456;2023-04-19T06:41:33;8.45;;;3.10;;
22916;SDS011;11624;53.250;7.456;2023-04-19T06:44:01;10.55;;;3.45;;
22916;SDS011;11624;53.250;7.456;2023-04-19T06:46:30;8.85;;;3.08;;
22916;SDS011;11624;53.250;7.456;2023-04-19T06:48:58;8.68;;;3.13;;
22916;SDS011;11624;53.250;7.456;2023-04-19T06:51:28;9.77;;;2.90;;
22916;SDS011;11624;53.250;7.456;2023-04-19T06:53:57;8.52;;;2.95;;
22916;SDS011;11624;53.250;7.456;2023-04-19T06:56:37;10.43;;;3.03;;
22916;SDS011;11624;53.250;7.456;2023-04-19T06:59:06;8.85;;;2.58;;
22916;SDS011;11624;53.250;7.456;2023-04-19T07:01:35;7.97;;;2.75;;
22916;SDS011;11624;53.250;7.456;2023-04-19T07:04:03;7.68;;;2.80;;
22916;SDS011;11624;53.250;7.456;2023-04-19T07:06:34;9.48;;;3.10;;
22916;SDS011;11624;53.250;7.456;2023-04-19T07:09:03;9.38;;;3.17;;
22916;SDS011;11624;53.250;7.456;2023-04-19T07:11:32;11.75;;;2.90;;
22916;SDS011;11624;53.250;7.456;2023-04-19T07:14:01;10.98;;;3.25;;
22916;SDS011;11624;53.250;7.456;2023-04-19T07:16:29;8.50;;;2.70;;
22916;SDS011;11624;53.250;7.456;2023-04-19T07:18:58;6.93;;;2.55;;
22916;SDS011;11624;53.250;7.456;2023-04-19T07:21:26;6.75;;;2.50;;
22916;SDS011;11624;53.250;7.456;2023-04-19T07:24:00;7.57;;;2.42;;
22916;SDS011;11624;53.250;7.456;2023-04-19T07:26:28;7.85;;;2.20;;
22916;SDS011;11624;53.250;7.456;2023-04-19T07:28:56;10.63;;;3.30;;
22916;SDS011;11624;53.250;7.456;2023-04-19T07:31:25;7.32;;;2.03;;
22916;SDS011;11624;53.250;7.456;2023-04-19T07:33:54;5.55;;;2.30;;
22916;SDS011;11624;53.250;7.456;2023-04-19T07:36:22;5.68;;;2.22;;
22916;SDS011;11624;53.250;7.456;2023-04-19T07:38:51;6.20;;;2.08;;
22916;SDS011;11624;53.250;7.456;2023-04-19T07:41:20;5.25;;;1.80;;
22916;SDS011;11624;53.250;7.456;2023-04-19T07:43:49;6.47;;;1.98;;
22916;SDS011;11624;53.250;7.456;2023-04-19T07:46:17;6.30;;;2.10;;
22916;SDS011;11624;53.250;7.456;2023-04-19T07:48:46;7.15;;;2.10;;
22916;SDS011;11624;53.250;7.456;2023-04-19T07:51:14;5.53;;;2.00;;
22916;SDS011;11624;53.250;7.456;2023-04-19T07:53:45;5.28;;;1.88;;
22916;SDS011;11624;53.250;7.456;2023-04-19T07:56:14;6.63;;;2.08;;
22916;SDS011;11624;53.250;7.456;2023-04-19T07:58:43;6.18;;;2.13;;
22916;SDS011;11624;53.250;7.456;2023-04-19T08:01:22;8.15;;;2.10;;
22916;SDS011;11624;53.250;7.456;2023-04-19T08:03:50;6.05;;;1.70;;
22916;SDS011;11624;53.250;7.456;2023-04-19T08:06:19;6.40;;;1.98;;
22916;SDS011;11624;53.250;7.456;2023-04-19T08:08:47;4.75;;;2.00;;
22916;SDS011;11624;53.250;7.456;2023-04-19T08:11:16;8.15;;;2.03;;
22916;SDS011;11624;53.250;7.456;2023-04-19T08:13:46;5.18;;;2.08;;
22916;SDS011;11624;53.250;7.456;2023-04-19T08:16:32;4.68;;;2.00;;
22916;SDS011;11624;53.250;7.456;2023-04-19T08:19:20;3.90;;;2.08;;
22916;SDS011;11624;53.250;7.456;2023-04-19T08:21:48;7.20;;;2.00;;
22916;SDS011;11624;53.250;7.456;2023-04-19T08:24:17;5.93;;;1.88;;
22916;SDS011;11624;53.250;7.456;2023-04-19T08:26:45;4.55;;;2.20;;
22916;SDS011;11624;53.250;7.456;2023-04-19T08:29:20;5.63;;;1.85;;
22916;SDS011;11624;53.250;7.456;2023-04-19T08:31:49;4.22;;;2.10;;
22916;SDS011;11624;53.250;7.456;2023-04-19T08:34:17;3.88;;;2.08;;
22916;SDS011;11624;53.250;7.456;2023-04-19T08:36:46;6.55;;;2.50;;
22916;SDS011;11624;53.250;7.456;2023-04-19T08:39:28;5.55;;;2.00;;
22916;SDS011;11624;53.250;7.456;2023-04-19T08:42:01;4.32;;;2.10;;
22916;SDS011;11624;53.250;7.456;2023-04-19T08:44:45;6.38;;;2.28;;
22916;SDS011;11624;53.250;7.456;2023-04-19T08:47:34;4.90;;;2.05;;
22916;SDS011;11624;53.250;7.456;2023-04-19T08:50:23;5.47;;;2.17;;
22916;SDS011;11624;53.250;7.456;2023-04-19T08:52:59;5.68;;;1.90;;
22916;SDS011;11624;53.250;7.456;2023-04-19T08:55:48;4.45;;;1.90;;
22916;SDS011;11624;53.250;7.456;2023-04-19T08:58:20;5.90;;;2.17;;
22916;SDS011;11624;53.250;7.456;2023-04-19T09:01:08;2.63;;;1.65;;
22916;SDS011;11624;53.250;7.456;2023-04-19T09:03:56;6.05;;;2.15;;
22916;SDS011;11624;53.250;7.456;2023-04-19T09:06:35;3.05;;;1.70;;
22916;SDS011;11624;53.250;7.456;2023-04-19T09:09:14;4.82;;;2.10;;
22916;SDS011;11624;53.250;7.456;2023-04-19T09:11:46;5.35;;;2.13;;
22916;SDS011;11624;53.250;7.456;2023-04-19T09:14:15;5.07;;;1.75;;
22916;SDS011;11624;53.250;7.456;2023-04-19T09:16:47;3.20;;;1.92;;
22916;SDS011;11624;53.250;7.456;2023-04-19T09:19:17;8.75;;;2.05;;
22916;SDS011;11624;53.250;7.456;2023-04-19T09:21:51;4.45;;;2.00;;
22916;SDS011;11624;53.250;7.456;2023-04-19T09:24:24;4.60;;;1.90;;
22916;SDS011;11624;53.250;7.456;2023-04-19T09:27:07;4.68;;;2.00;;
22916;SDS011;11624;53.250;7.456;2023-04-19T09:29:38;5.65;;;2.08;;
22916;SDS011;11624;53.250;7.456;2023-04-19T09:32:07;4.75;;;1.90;;
22916;SDS011;11624;53.250;7.456;2023-04-19T09:34:36;5.53;;;1.83;;
22916;SDS011;11624;53.250;7.456;2023-04-19T09:37:18;7.30;;;2.08;;
22916;SDS011;11624;53.250;7.456;2023-04-19T09:40:20;6.00;;;2.47;;
22916;SDS011;11624;53.250;7.456;2023-04-19T09:42:49;4.70;;;2.03;;
22916;SDS011;11624;53.250;7.456;2023-04-19T09:45:20;4.68;;;2.05;;
22916;SDS011;11624;53.250;7.456;2023-04-19T09:48:03;4.57;;;2.00;;
22916;SDS011;11624;53.250;7.456;2023-04-19T09:50:33;4.30;;;1.90;;
22916;SDS011;11624;53.250;7.456;2023-04-19T09:53:16;4.53;;;1.83;;
22916;SDS011;11624;53.250;7.456;2023-04-19T09:55:45;8.00;;;2.20;;
22916;SDS011;11624;53.250;7.456;2023-04-19T09:58:26;6.25;;;1.90;;
22916;SDS011;11624;53.250;7.456;2023-04-19T10:01:14;6.28;;;2.00;;
22916;SDS011;11624;53.250;7.456;2023-04-19T10:03:45;5.20;;;2.10;;
22916;SDS011;11624;53.250;7.456;2023-04-19T10:06:18;5.35;;;1.92;;
22916;SDS011;11624;53.250;7.456;2023-04-19T10:08:50;4.90;;;2.13;;
22916;SDS011;11624;53.250;7.456;2023-04-19T10:11:21;7.03;;;2.25;;
22916;SDS011;11624;53.250;7.456;2023-04-19T10:13:51;3.72;;;2.08;;
22916;SDS011;11624;53.250;7.456;2023-04-19T10:16:22;3.83;;;2.00;;
22916;SDS011;11624;53.250;7.456;2023-04-19T10:18:53;7.72;;;2.45;;
22916;SDS011;11624;53.250;7.456;2023-04-19T10:21:22;5.95;;;2.30;;
22916;SDS011;11624;53.250;7.456;2023-04-19T10:23:54;7.25;;;2.40;;
22916;SDS011;11624;53.250;7.456;2023-04-19T10:26:23;5.70;;;2.15;;
22916;SDS011;11624;53.250;7.456;2023-04-19T10:28:52;6.47;;;2.20;;
22916;SDS011;11624;53.250;7.456;2023-04-19T10:31:23;8.90;;;2.47;;
22916;SDS011;11624;53.250;7.456;2023-04-19T10:33:54;5.50;;;2.10;;
22916;SDS011;11624;53.250;7.456;2023-04-19T10:36:23;7.28;;;2.30;;
22916;SDS011;11624;53.250;7.456;2023-04-19T10:38:54;7.30;;;2.60;;
22916;SDS011;11624;53.250;7.456;2023-04-19T10:41:22;6.82;;;2.35;;
22916;SDS011;11624;53.250;7.456;2023-04-19T10:46:38;8.50;;;2.55;;
22916;SDS011;11624;53.250;7.456;2023-04-19T10:49:08;7.75;;;2.65;;
22916;SDS011;11624;53.250;7.456;2023-04-19T10:51:39;8.10;;;3.03;;
22916;SDS011;11624;53.250;7.456;2023-04-19T10:54:26;7.80;;;2.83;;
22916;SDS011;11624;53.250;7.456;2023-04-19T10:57:00;7.45;;;2.72;;
22916;SDS011;11624;53.250;7.456;2023-04-19T10:59:30;7.30;;;2.67;;
22916;SDS011;11624;53.250;7.456;2023-04-19T11:02:00;7.65;;;2.78;;
22916;SDS011;11624;53.250;7.456;2023-04-19T11:07:37;6.93;;;2.60;;
22916;SDS011;11624;53.250;7.456;2023-04-19T11:10:07;5.63;;;2.70;;
22916;SDS011;11624;53.250;7.456;2023-04-19T11:12:41;6.07;;;2.72;;
22916;SDS011;11624;53.250;7.456;2023-04-19T11:15:10;9.77;;;3.20;;
22916;SDS011;11624;53.250;7.456;2023-04-19T11:17:38;6.40;;;2.80;;
22916;SDS011;11624;53.250;7.456;2023-04-19T11:20:10;6.95;;;2.72;;
22916;SDS011;11624;53.250;7.456;2023-04-19T11:22:41;9.07;;;2.88;;
22916;SDS011;11624;53.250;7.456;2023-04-19T11:25:11;7.85;;;2.85;;
22916;SDS011;11624;53.250;7.456;2023-04-19T11:27:42;8.35;;;2.90;;
22916;SDS011;11624;53.250;7.456;2023-04-19T11:30:11;7.10;;;2.45;;
22916;SDS011;11624;53.250;7.456;2023-04-19T11:32:45;7.20;;;2.72;;
22916;SDS011;11624;53.250;7.456;2023-04-19T11:35:19;8.95;;;2.60;;
22916;SDS011;11624;53.250;7.456;2023-04-19T11:37:48;9.98;;;2.75;;
22916;SDS011;11624;53.250;7.456;2023-04-19T11:40:18;7.13;;;3.85;;
22916;SDS011;11624;53.250;7.456;2023-04-19T11:42:52;6.70;;;3.35;;
22916;SDS011;11624;53.250;7.456;2023-04-19T11:45:25;8.05;;;2.92;;
22916;SDS011;11624;53.250;7.456;2023-04-19T11:48:00;6.47;;;2.83;;
22916;SDS011;11624;53.250;7.456;2023-04-19T11:50:31;7.50;;;3.58;;
22916;SDS011;11624;53.250;7.456;2023-04-19T11:53:11;10.13;;;3.28;;
22916;SDS011;11624;53.250;7.456;2023-04-19T11:55:41;7.32;;;3.20;;
22916;SDS011;11624;53.250;7.456;2023-04-19T11:58:23;9.27;;;4.05;;
22916;SDS011;11624;53.250;7.456;2023-04-19T12:00:54;7.95;;;2.65;;
22916;SDS011;11624;53.250;7.456;2023-04-19T12:03:26;8.70;;;3.25;;
22916;SDS011;11624;53.250;7.456;2023-04-19T12:05:56;10.25;;;2.80;;
22916;SDS011;11624;53.250;7.456;2023-04-19T12:08:29;6.45;;;3.08;;
22916;SDS011;11624;53.250;7.456;2023-04-19T12:10:59;9.52;;;3.03;;
22916;SDS011;11624;53.250;7.456;2023-04-19T12:13:29;8.73;;;3.20;;
22916;SDS011;11624;53.250;7.456;2023-04-19T12:15:58;10.60;;;2.80;;
22916;SDS011;11624;53.250;7.456;2023-04-19T12:18:27;7.63;;;3.28;;
22916;SDS011;11624;53.250;7.456;2023-04-19T12:21:11;7.78;;;2.70;;
22916;SDS011;11624;53.250;7.456;2023-04-19T12:23:53;7.60;;;3.13;;
22916;SDS011;11624;53.250;7.456;2023-04-19T12:26:23;6.30;;;2.25;;
22916;SDS011;11624;53.250;7.456;2023-04-19T12:28:52;6.32;;;2.63;;
22916;SDS011;11624;53.250;7.456;2023-04-19T12:31:20;5.78;;;2.50;;
22916;SDS011;11624;53.250;7.456;2023-04-19T12:33:49;7.53;;;2.60;;
22916;SDS011;11624;53.250;7.456;2023-04-19T12:36:19;5.93;;;2.58;;
22916;SDS011;11624;53.250;7.456;2023-04-19T12:38:50;26.95;;;14.60;;
22916;SDS011;11624;53.250;7.456;2023-04-19T12:41:19;7.28;;;2.85;;
22916;SDS011;11624;53.250;7.456;2023-04-19T12:43:47;9.85;;;3.63;;
22916;SDS011;11624;53.250;7.456;2023-04-19T12:46:15;6.63;;;2.50;;
22916;SDS011;11624;53.250;7.456;2023-04-19T12:48:44;7.35;;;3.00;;
22916;SDS011;11624;53.250;7.456;2023-04-19T12:51:12;8.40;;;2.88;;
22916;SDS011;11624;53.250;7.456;2023-04-19T12:53:44;7.95;;;2.85;;
22916;SDS011;11624;53.250;7.456;2023-04-19T12:56:14;7.70;;;3.00;;
22916;SDS011;11624;53.250;7.456;2023-04-19T12:58:43;10.02;;;3.50;;
22916;SDS011;11624;53.250;7.456;2023-04-19T13:01:11;5.85;;;2.80;;
22916;SDS011;11624;53.250;7.456;2023-04-19T13:03:39;5.65;;;2.95;;
22916;SDS011;11624;53.250;7.456;2023-04-19T13:06:08;7.57;;;2.90;;
22916;SDS011;11624;53.250;7.456;2023-04-19T13:08:39;8.05;;;2.90;;
22916;SDS011;11624;53.250;7.456;2023-04-19T13:11:14;7.97;;;2.95;;
22916;SDS011;11624;53.250;7.456;2023-04-19T13:13:49;7.63;;;2.80;;
22916;SDS011;11624;53.250;7.456;2023-04-19T13:16:19;7.38;;;2.80;;
22916;SDS011;11624;53.250;7.456;2023-04-19T13:18:48;8.73;;;3.95;;
22916;SDS011;11624;53.250;7.456;2023-04-19T13:21:18;6.65;;;2.85;;
22916;SDS011;11624;53.250;7.456;2023-04-19T13:23:46;6.68;;;2.38;;
22916;SDS011;11624;53.250;7.456;2023-04-19T13:26:16;7.18;;;2.63;;
22916;SDS011;11624;53.250;7.456;2023-04-19T13:28:44;7.90;;;2.78;;
22916;SDS011;11624;53.250;7.456;2023-04-19T13:31:13;8.00;;;2.95;;
22916;SDS011;11624;53.250;7.456;2023-04-19T13:33:41;5.88;;;2.53;;
22916;SDS011;11624;53.250;7.456;2023-04-19T13:36:09;7.18;;;2.85;;
22916;SDS011;11624;53.250;7.456;2023-04-19T13:38:38;4.82;;;2.60;;
22916;SDS011;11624;53.250;7.456;2023-04-19T13:41:06;5.90;;;2.45;;
22916;SDS011;11624;53.250;7.456;2023-04-19T13:43:36;10.18;;;2.95;;
22916;SDS011;11624;53.250;7.456;2023-04-19T13:46:04;8.52;;;2.70;;
22916;SDS011;11624;53.250;7.456;2023-04-19T13:48:32;6.60;;;2.70;;
22916;SDS011;11624;53.250;7.456;2023-04-19T13:51:01;6.90;;;2.80;;
22916;SDS011;11624;53.250;7.456;2023-04-19T13:53:29;7.07;;;2.50;;
22916;SDS011;11624;53.250;7.456;2023-04-19T13:55:58;5.97;;;3.05;;
22916;SDS011;11624;53.250;7.456;2023-04-19T13:58:26;7.03;;;2.78;;
22916;SDS011;11624;53.250;7.456;2023-04-19T14:00:56;4.45;;;2.13;;
22916;SDS011;11624;53.250;7.456;2023-04-19T14:03:24;5.55;;;2.97;;
22916;SDS011;11624;53.250;7.456;2023-04-19T14:05:53;4.95;;;2.33;;
22916;SDS011;11624;53.250;7.456;2023-04-19T14:08:23;6.57;;;2.60;;
22916;SDS011;11624;53.250;7.456;2023-04-19T14:10:51;7.07;;;2.20;;
22916;SDS011;11624;53.250;7.456;2023-04-19T14:13:20;5.18;;;2.40;;
22916;SDS011;11624;53.250;7.456;2023-04-19T14:15:48;5.53;;;2.25;;
22916;SDS011;11624;53.250;7.456;2023-04-19T14:18:18;7.90;;;2.70;;
22916;SDS011;11624;53.250;7.456;2023-04-19T14:20:46;6.72;;;2.47;;
22916;SDS011;11624;53.250;7.456;2023-04-19T14:23:15;7.65;;;2.35;;
22916;SDS011;11624;53.250;7.456;2023-04-19T14:25:43;6.63;;;4.15;;
22916;SDS011;11624;53.250;7.456;2023-04-19T14:28:11;9.25;;;3.38;;
22916;SDS011;11624;53.250;7.456;2023-04-19T14:30:40;4.30;;;2.30;;
22916;SDS011;11624;53.250;7.456;2023-04-19T14:33:08;8.60;;;2.95;;
22916;SDS011;11624;53.250;7.456;2023-04-19T14:35:38;7.90;;;2.55;;
22916;SDS011;11624;53.250;7.456;2023-04-19T14:38:08;7.57;;;3.03;;
22916;SDS011;11624;53.250;7.456;2023-04-19T14:40:36;7.22;;;2.45;;
22916;SDS011;11624;53.250;7.456;2023-04-19T14:43:05;5.28;;;2.58;;
22916;SDS011;11624;53.250;7.456;2023-04-19T14:45:33;6.68;;;2.60;;
22916;SDS011;11624;53.250;7.456;2023-04-19T14:48:01;7.15;;;2.55;;
22916;SDS011;11624;53.250;7.456;2023-04-19T14:50:30;7.25;;;2.80;;
22916;SDS011;11624;53.250;7.456;2023-04-19T14:52:59;9.07;;;2.72;;
22916;SDS011;11624;53.250;7.456;2023-04-19T14:55:28;5.47;;;2.22;;
22916;SDS011;11624;53.250;7.456;2023-04-19T14:57:56;7.40;;;2.45;;
22916;SDS011;11624;53.250;7.456;2023-04-19T15:00:24;11.00;;;2.97;;
22916;SDS011;11624;53.250;7.456;2023-04-19T15:02:54;6.70;;;2.30;;
22916;SDS011;11624;53.250;7.456;2023-04-19T15:05:24;8.32;;;3.10;;
22916;SDS011;11624;53.250;7.456;2023-04-19T15:07:54;8.52;;;4.25;;